sensor_id;sensor_type;location;lat;lon;timestamp;temperature;humidity
49679;DHT22;35570;48.218;16.326;2023-03-21T00:00:37;12.30;92.00
49679;DHT22;35570;48.218;16.326;2023-03-21T00:03:03;12.40;91.30
49679;DHT22;35570;48.218;16.326;2023-03-21T00:05:30;12.40;91.50
49679;DHT22;35570;48.218;16.326;2023-03-21T00:07:55;12.40;91.70
49679;DHT22;35570;48.218;16.326;2023-03-21T00:10:21;12.40;91.90
49679;DHT22;35570;48.218;16.326;2023-03-21T00:12:47;12.40;91.60
49679;DHT22;35570;48.218;16.326;2023-03-21T00:15:15;12.40;91.80
49679;DHT22;35570;48.218;16.326;2023-03-21T00:17:43;12.40;91.90
49679;DHT22;35570;48.218;16.326;2023-03-21T00:20:09;12.40;91.60
49679;DHT22;35570;48.218;16.326;2023-03-21T00:22:40;12.50;91.80
49679;DHT22;35570;48.218;16.326;2023-03-21T00:25:08;12.50;91.60
49679;DHT22;35570;48.218;16.326;2023-03-21T00:27:35;12.50;92.30
49679;DHT22;35570;48.218;16.326;2023-03-21T00:30:01;12.50;91.70
49679;DHT22;35570;48.218;16.326;2023-03-21T00:32:27;12.50;91.30
49679;DHT22;35570;48.218;16.326;2023-03-21T00:34:52;12.50;91.50
49679;DHT22;35570;48.218;16.326;2023-03-21T00:37:18;12.50;90.90
49679;DHT22;35570;48.218;16.326;2023-03-21T00:39:46;12.50;91.60
49679;DHT22;35570;48.218;16.326;2023-03-21T00:42:14;12.50;91.40
49679;DHT22;35570;48.218;16.326;2023-03-21T00:44:40;12.40;91.80
49679;DHT22;35570;48.218;16.326;2023-03-21T00:47:08;12.50;92.00
49679;DHT22;35570;48.218;16.326;2023-03-21T00:49:36;12.50;91.00
49679;DHT22;35570;48.218;16.326;2023-03-21T00:52:08;12.50;91.00
49679;DHT22;35570;48.218;16.326;2023-03-21T00:54:34;12.50;90.50
49679;DHT22;35570;48.218;16.326;2023-03-21T00:57:01;12.50;90.90
49679;DHT22;35570;48.218;16.326;2023-03-21T00:59:27;12.50;91.00
49679;DHT22;35570;48.218;16.326;2023-03-21T01:01:53;12.50;91.00
49679;DHT22;35570;48.218;16.326;2023-03-21T01:04:22;12.50;90.70
49679;DHT22;35570;48.218;16.326;2023-03-21T01:06:52;12.50;89.60
49679;DHT22;35570;48.218;16.326;2023-03-21T01:09:20;12.50;90.70
49679;DHT22;35570;48.218;16.326;2023-03-21T01:11:47;12.40;90.50
49679;DHT22;35570;48.218;16.326;2023-03-21T01:14:14;12.50;90.60
49679;DHT22;35570;48.218;16.326;2023-03-21T01:16:40;12.50;90.90
49679;DHT22;35570;48.218;16.326;2023-03-21T01:19:07;12.50;89.50
49679;DHT22;35570;48.218;16.326;2023-03-21T01:21:33;12.60;90.10
49679;DHT22;35570;48.218;16.326;2023-03-21T01:24:00;12.50;87.00
49679;DHT22;35570;48.218;16.326;2023-03-21T01:26:26;12.50;88.40
49679;DHT22;35570;48.218;16.326;2023-03-21T01:28:52;12.50;87.40
49679;DHT22;35570;48.218;16.326;2023-03-21T01:31:18;12.60;87.70
49679;DHT22;35570;48.218;16.326;2023-03-21T01:33:44;12.60;87.30
49679;DHT22;35570;48.218;16.326;2023-03-21T01:36:19;12.50;87.10
49679;DHT22;35570;48.218;16.326;2023-03-21T01:38:46;12.50;87.40
49679;DHT22;35570;48.218;16.326;2023-03-21T01:41:34;12.50;87.00
49679;DHT22;35570;48.218;16.326;2023-03-21T01:44:00;12.40;88.70
49679;DHT22;35570;48.218;16.326;2023-03-21T01:46:44;12.40;88.30
49679;DHT22;35570;48.218;16.326;2023-03-21T01:49:30;12.40;88.60
49679;DHT22;35570;48.218;16.326;2023-03-21T01:52:06;12.40;88.40
49679;DHT22;35570;48.218;16.326;2023-03-21T01:54:35;12.40;88.20
49679;DHT22;35570;48.218;16.326;2023-03-21T01:57:08;12.40;88.00
49679;DHT22;35570;48.218;16.326;2023-03-21T01:59:45;12.40;88.10
49679;DHT22;35570;48.218;16.326;2023-03-21T02:02:19;12.40;88.60
49679;DHT22;35570;48.218;16.326;2023-03-21T02:04:48;12.40;89.70
49679;DHT22;35570;48.218;16.326;2023-03-21T02:07:32;12.40;88.30
49679;DHT22;35570;48.218;16.326;2023-03-21T02:10:04;12.40;88.50
49679;DHT22;35570;48.218;16.326;2023-03-21T02:12:33;12.40;87.20
49679;DHT22;35570;48.218;16.326;2023-03-21T02:14:58;12.40;89.20
49679;DHT22;35570;48.218;16.326;2023-03-21T02:20:57;12.40;87.60
49679;DHT22;35570;48.218;16.326;2023-03-21T02:28:34;12.40;89.50
49679;DHT22;35570;48.218;16.326;2023-03-21T02:39:54;12.30;89.90
49679;DHT22;35570;48.218;16.326;2023-03-21T02:45:10;12.40;88.80
49679;DHT22;35570;48.218;16.326;2023-03-21T02:47:47;12.40;88.00
49679;DHT22;35570;48.218;16.326;2023-03-21T02:50:36;12.30;88.90
49679;DHT22;35570;48.218;16.326;2023-03-21T02:53:07;12.30;90.30
49679;DHT22;35570;48.218;16.326;2023-03-21T02:55:35;12.30;90.20
49679;DHT22;35570;48.218;16.326;2023-03-21T02:58:04;12.30;90.00
49679;DHT22;35570;48.218;16.326;2023-03-21T03:00:32;12.30;90.60
49679;DHT22;35570;48.218;16.326;2023-03-21T03:02:58;12.20;90.40
49679;DHT22;35570;48.218;16.326;2023-03-21T03:05:27;12.20;90.40
49679;DHT22;35570;48.218;16.326;2023-03-21T03:10:52;12.20;90.80
49679;DHT22;35570;48.218;16.326;2023-03-21T03:16:58;12.00;91.40
49679;DHT22;35570;48.218;16.326;2023-03-21T03:19:33;12.00;91.90
49679;DHT22;35570;48.218;16.326;2023-03-21T03:22:09;12.00;92.20
49679;DHT22;35570;48.218;16.326;2023-03-21T03:24:44;12.00;92.00
49679;DHT22;35570;48.218;16.326;2023-03-21T03:27:24;12.00;91.60
49679;DHT22;35570;48.218;16.326;2023-03-21T03:29:52;12.00;92.30
49679;DHT22;35570;48.218;16.326;2023-03-21T03:32:27;12.00;92.30
49679;DHT22;35570;48.218;16.326;2023-03-21T03:34:55;11.90;91.60
49679;DHT22;35570;48.218;16.326;2023-03-21T03:37:26;11.90;92.70
49679;DHT22;35570;48.218;16.326;2023-03-21T03:40:06;11.90;92.70
49679;DHT22;35570;48.218;16.326;2023-03-21T03:42:39;12.00;92.10
49679;DHT22;35570;48.218;16.326;2023-03-21T03:45:05;11.90;92.80
49679;DHT22;35570;48.218;16.326;2023-03-21T03:50:27;12.00;91.30
49679;DHT22;35570;48.218;16.326;2023-03-21T03:56:02;12.00;92.10
49679;DHT22;35570;48.218;16.326;2023-03-21T03:58:28;11.90;91.90
49679;DHT22;35570;48.218;16.326;2023-03-21T04:00:55;11.90;91.10
49679;DHT22;35570;48.218;16.326;2023-03-21T04:03:22;11.90;92.50
49679;DHT22;35570;48.218;16.326;2023-03-21T04:05:47;11.90;92.30
49679;DHT22;35570;48.218;16.326;2023-03-21T04:08:14;11.80;92.50
49679;DHT22;35570;48.218;16.326;2023-03-21T04:10:41;11.80;91.90
49679;DHT22;35570;48.218;16.326;2023-03-21T04:13:06;11.80;92.00
49679;DHT22;35570;48.218;16.326;2023-03-21T04:15:32;11.80;91.70
49679;DHT22;35570;48.218;16.326;2023-03-21T04:17:58;11.80;92.60
49679;DHT22;35570;48.218;16.326;2023-03-21T04:20:23;11.80;91.50
49679;DHT22;35570;48.218;16.326;2023-03-21T04:22:49;11.70;92.30
49679;DHT22;35570;48.218;16.326;2023-03-21T04:25:15;11.70;91.30
49679;DHT22;35570;48.218;16.326;2023-03-21T04:27:41;11.70;92.40
49679;DHT22;35570;48.218;16.326;2023-03-21T04:30:08;11.60;92.30
49679;DHT22;35570;48.218;16.326;2023-03-21T04:32:37;11.60;93.80
49679;DHT22;35570;48.218;16.326;2023-03-21T04:35:08;11.60;91.80
49679;DHT22;35570;48.218;16.326;2023-03-21T04:37:35;11.50;91.50
49679;DHT22;35570;48.218;16.326;2023-03-21T04:40:02;11.40;92.80
49679;DHT22;35570;48.218;16.326;2023-03-21T04:42:33;11.40;93.00
49679;DHT22;35570;48.218;16.326;2023-03-21T04:45:00;11.40;93.10
49679;DHT22;35570;48.218;16.326;2023-03-21T04:47:26;11.40;94.20
49679;DHT22;35570;48.218;16.326;2023-03-21T04:49:51;11.30;95.00
49679;DHT22;35570;48.218;16.326;2023-03-21T04:52:18;11.40;94.70
49679;DHT22;35570;48.218;16.326;2023-03-21T04:54:44;11.40;92.10
49679;DHT22;35570;48.218;16.326;2023-03-21T04:57:10;11.40;93.30
49679;DHT22;35570;48.218;16.326;2023-03-21T04:59:36;11.40;92.90
49679;DHT22;35570;48.218;16.326;2023-03-21T05:02:01;11.30;92.50
49679;DHT22;35570;48.218;16.326;2023-03-21T05:04:27;11.30;92.70
49679;DHT22;35570;48.218;16.326;2023-03-21T05:06:53;11.20;94.90
49679;DHT22;35570;48.218;16.326;2023-03-21T05:09:20;11.20;92.80
49679;DHT22;35570;48.218;16.326;2023-03-21T05:11:46;11.20;93.80
49679;DHT22;35570;48.218;16.326;2023-03-21T05:14:21;11.30;93.40
49679;DHT22;35570;48.218;16.326;2023-03-21T05:16:47;11.20;93.10
49679;DHT22;35570;48.218;16.326;2023-03-21T05:19:18;11.20;93.70
49679;DHT22;35570;48.218;16.326;2023-03-21T05:21:45;11.20;94.30
49679;DHT22;35570;48.218;16.326;2023-03-21T05:24:16;11.20;95.00
49679;DHT22;35570;48.218;16.326;2023-03-21T05:26:43;11.20;94.40
49679;DHT22;35570;48.218;16.326;2023-03-21T05:29:15;11.30;93.00
49679;DHT22;35570;48.218;16.326;2023-03-21T05:31:40;11.40;94.20
49679;DHT22;35570;48.218;16.326;2023-03-21T05:34:06;11.40;93.00
49679;DHT22;35570;48.218;16.326;2023-03-21T05:36:32;11.40;92.40
49679;DHT22;35570;48.218;16.326;2023-03-21T05:39:00;11.50;93.40
49679;DHT22;35570;48.218;16.326;2023-03-21T05:41:26;11.60;92.80
49679;DHT22;35570;48.218;16.326;2023-03-21T05:43:52;11.50;92.70
49679;DHT22;35570;48.218;16.326;2023-03-21T05:46:17;11.50;92.60
49679;DHT22;35570;48.218;16.326;2023-03-21T05:48:43;11.50;93.20
49679;DHT22;35570;48.218;16.326;2023-03-21T05:51:09;11.60;92.50
49679;DHT22;35570;48.218;16.326;2023-03-21T05:53:35;11.50;92.80
49679;DHT22;35570;48.218;16.326;2023-03-21T05:56:01;11.60;94.30
49679;DHT22;35570;48.218;16.326;2023-03-21T05:58:26;11.70;92.80
49679;DHT22;35570;48.218;16.326;2023-03-21T06:00:52;11.80;93.50
49679;DHT22;35570;48.218;16.326;2023-03-21T06:03:18;11.90;92.70
49679;DHT22;35570;48.218;16.326;2023-03-21T06:05:43;12.00;91.50
49679;DHT22;35570;48.218;16.326;2023-03-21T06:08:09;12.00;92.10
49679;DHT22;35570;48.218;16.326;2023-03-21T06:10:35;12.10;93.00
49679;DHT22;35570;48.218;16.326;2023-03-21T06:13:00;12.20;91.10
49679;DHT22;35570;48.218;16.326;2023-03-21T06:15:26;12.40;88.50
49679;DHT22;35570;48.218;16.326;2023-03-21T06:17:52;12.30;89.40
49679;DHT22;35570;48.218;16.326;2023-03-21T06:20:17;12.30;87.90
49679;DHT22;35570;48.218;16.326;2023-03-21T06:22:43;12.20;89.30
49679;DHT22;35570;48.218;16.326;2023-03-21T06:25:09;12.30;87.10
49679;DHT22;35570;48.218;16.326;2023-03-21T06:27:35;12.40;89.00
49679;DHT22;35570;48.218;16.326;2023-03-21T06:30:02;12.50;90.80
49679;DHT22;35570;48.218;16.326;2023-03-21T06:32:28;12.50;90.00
49679;DHT22;35570;48.218;16.326;2023-03-21T06:34:54;12.60;88.50
49679;DHT22;35570;48.218;16.326;2023-03-21T06:37:19;12.70;85.20
49679;DHT22;35570;48.218;16.326;2023-03-21T06:39:45;12.80;86.30
49679;DHT22;35570;48.218;16.326;2023-03-21T06:42:12;12.80;86.00
49679;DHT22;35570;48.218;16.326;2023-03-21T06:44:38;12.90;84.50
49679;DHT22;35570;48.218;16.326;2023-03-21T06:47:05;13.10;84.30
49679;DHT22;35570;48.218;16.326;2023-03-21T06:49:31;13.30;84.60
49679;DHT22;35570;48.218;16.326;2023-03-21T06:51:57;13.30;80.20
49679;DHT22;35570;48.218;16.326;2023-03-21T06:54:23;13.20;80.70
49679;DHT22;35570;48.218;16.326;2023-03-21T06:56:48;13.20;78.70
49679;DHT22;35570;48.218;16.326;2023-03-21T06:59:14;13.20;80.00
49679;DHT22;35570;48.218;16.326;2023-03-21T07:01:40;13.20;81.70
49679;DHT22;35570;48.218;16.326;2023-03-21T07:04:07;13.30;78.10
49679;DHT22;35570;48.218;16.326;2023-03-21T07:06:34;13.30;79.00
49679;DHT22;35570;48.218;16.326;2023-03-21T07:09:00;13.40;76.60
49679;DHT22;35570;48.218;16.326;2023-03-21T07:11:27;13.50;77.90
49679;DHT22;35570;48.218;16.326;2023-03-21T07:13:53;13.70;75.00
49679;DHT22;35570;48.218;16.326;2023-03-21T07:16:19;13.70;76.10
49679;DHT22;35570;48.218;16.326;2023-03-21T07:18:46;13.80;74.20
49679;DHT22;35570;48.218;16.326;2023-03-21T07:21:13;13.90;76.20
49679;DHT22;35570;48.218;16.326;2023-03-21T07:23:38;14.10;76.50
49679;DHT22;35570;48.218;16.326;2023-03-21T07:26:05;14.20;72.30
49679;DHT22;35570;48.218;16.326;2023-03-21T07:28:30;14.40;72.30
49679;DHT22;35570;48.218;16.326;2023-03-21T07:31:00;14.50;70.30
49679;DHT22;35570;48.218;16.326;2023-03-21T07:33:26;14.50;76.40
49679;DHT22;35570;48.218;16.326;2023-03-21T07:35:53;14.70;71.30
49679;DHT22;35570;48.218;16.326;2023-03-21T07:38:20;14.80;69.70
49679;DHT22;35570;48.218;16.326;2023-03-21T07:43:29;15.00;67.80
49679;DHT22;35570;48.218;16.326;2023-03-21T07:51:53;15.30;66.10
49679;DHT22;35570;48.218;16.326;2023-03-21T07:54:19;15.50;69.40
49679;DHT22;35570;48.218;16.326;2023-03-21T07:56:47;15.70;66.30
49679;DHT22;35570;48.218;16.326;2023-03-21T07:59:13;14.90;68.80
49679;DHT22;35570;48.218;16.326;2023-03-21T08:06:45;16.00;63.30
49679;DHT22;35570;48.218;16.326;2023-03-21T08:09:11;16.10;65.00
49679;DHT22;35570;48.218;16.326;2023-03-21T08:11:37;16.20;62.90
49679;DHT22;35570;48.218;16.326;2023-03-21T08:14:02;16.20;60.90
49679;DHT22;35570;48.218;16.326;2023-03-21T08:16:28;16.30;64.00
49679;DHT22;35570;48.218;16.326;2023-03-21T08:18:54;16.50;61.40
49679;DHT22;35570;48.218;16.326;2023-03-21T08:21:19;16.70;63.60
49679;DHT22;35570;48.218;16.326;2023-03-21T08:23:45;16.90;60.60
49679;DHT22;35570;48.218;16.326;2023-03-21T08:26:11;17.10;58.80
49679;DHT22;35570;48.218;16.326;2023-03-21T08:28:43;17.00;57.70
49679;DHT22;35570;48.218;16.326;2023-03-21T08:31:11;17.00;58.90
49679;DHT22;35570;48.218;16.326;2023-03-21T08:36:14;16.80;61.50
49679;DHT22;35570;48.218;16.326;2023-03-21T08:38:40;16.90;58.80
49679;DHT22;35570;48.218;16.326;2023-03-21T08:41:05;17.00;59.40
49679;DHT22;35570;48.218;16.326;2023-03-21T08:43:31;17.10;59.20
49679;DHT22;35570;48.218;16.326;2023-03-21T08:45:57;17.20;58.80
49679;DHT22;35570;48.218;16.326;2023-03-21T08:48:22;17.50;60.70
49679;DHT22;35570;48.218;16.326;2023-03-21T08:50:48;17.70;60.00
49679;DHT22;35570;48.218;16.326;2023-03-21T08:53:14;17.90;58.30
49679;DHT22;35570;48.218;16.326;2023-03-21T08:55:40;18.00;57.80
49679;DHT22;35570;48.218;16.326;2023-03-21T08:58:05;17.90;56.30
49679;DHT22;35570;48.218;16.326;2023-03-21T09:00:31;17.80;56.10
49679;DHT22;35570;48.218;16.326;2023-03-21T09:02:57;17.50;57.80
49679;DHT22;35570;48.218;16.326;2023-03-21T09:07:58;16.80;58.70
49679;DHT22;35570;48.218;16.326;2023-03-21T09:10:26;16.40;59.70
49679;DHT22;35570;48.218;16.326;2023-03-21T09:18:12;16.20;61.60
49679;DHT22;35570;48.218;16.326;2023-03-21T09:20:58;16.30;60.00
49679;DHT22;35570;48.218;16.326;2023-03-21T09:23:28;16.50;60.10
49679;DHT22;35570;48.218;16.326;2023-03-21T09:25:54;16.70;59.90
49679;DHT22;35570;48.218;16.326;2023-03-21T09:28:19;16.70;59.50
49679;DHT22;35570;48.218;16.326;2023-03-21T09:30:45;16.90;60.90
49679;DHT22;35570;48.218;16.326;2023-03-21T09:33:11;17.20;58.80
49679;DHT22;35570;48.218;16.326;2023-03-21T09:38:34;17.10;59.40
49679;DHT22;35570;48.218;16.326;2023-03-21T09:47:12;18.40;60.00
49679;DHT22;35570;48.218;16.326;2023-03-21T09:49:48;19.00;59.30
49679;DHT22;35570;48.218;16.326;2023-03-21T09:52:28;19.50;56.50
49679;DHT22;35570;48.218;16.326;2023-03-21T09:54:54;20.00;51.80
49679;DHT22;35570;48.218;16.326;2023-03-21T09:57:37;20.30;52.90
49679;DHT22;35570;48.218;16.326;2023-03-21T10:00:12;20.20;52.40
49679;DHT22;35570;48.218;16.326;2023-03-21T10:02:46;20.10;53.60
49679;DHT22;35570;48.218;16.326;2023-03-21T10:05:18;20.30;51.50
49679;DHT22;35570;48.218;16.326;2023-03-21T10:08:06;20.20;51.60
49679;DHT22;35570;48.218;16.326;2023-03-21T10:10:39;19.90;50.90
49679;DHT22;35570;48.218;16.326;2023-03-21T10:13:17;19.60;52.90
49679;DHT22;35570;48.218;16.326;2023-03-21T10:15:44;19.50;52.00
49679;DHT22;35570;48.218;16.326;2023-03-21T10:18:15;19.50;52.00
49679;DHT22;35570;48.218;16.326;2023-03-21T10:20:44;19.70;51.70
49679;DHT22;35570;48.218;16.326;2023-03-21T10:23:14;19.40;50.90
49679;DHT22;35570;48.218;16.326;2023-03-21T10:25:49;19.20;50.60
49679;DHT22;35570;48.218;16.326;2023-03-21T10:28:23;19.00;51.30
49679;DHT22;35570;48.218;16.326;2023-03-21T10:30:54;18.70;52.70
49679;DHT22;35570;48.218;16.326;2023-03-21T10:33:26;18.50;53.10
49679;DHT22;35570;48.218;16.326;2023-03-21T10:36:01;18.40;54.10
49679;DHT22;35570;48.218;16.326;2023-03-21T10:38:29;18.50;54.40
49679;DHT22;35570;48.218;16.326;2023-03-21T10:40:55;18.60;56.20
49679;DHT22;35570;48.218;16.326;2023-03-21T10:45:59;20.50;53.30
49679;DHT22;35570;48.218;16.326;2023-03-21T10:48:34;22.40;50.30
49679;DHT22;35570;48.218;16.326;2023-03-21T10:51:01;23.00;47.70
49679;DHT22;35570;48.218;16.326;2023-03-21T10:53:31;22.50;47.20
49679;DHT22;35570;48.218;16.326;2023-03-21T10:55:59;22.80;47.80
49679;DHT22;35570;48.218;16.326;2023-03-21T10:58:29;23.50;46.40
49679;DHT22;35570;48.218;16.326;2023-03-21T11:01:05;24.50;43.10
49679;DHT22;35570;48.218;16.326;2023-03-21T11:03:36;25.80;43.90
49679;DHT22;35570;48.218;16.326;2023-03-21T11:06:07;27.20;42.00
49679;DHT22;35570;48.218;16.326;2023-03-21T11:08:57;28.00;38.80
49679;DHT22;35570;48.218;16.326;2023-03-21T11:11:37;27.10;37.20
49679;DHT22;35570;48.218;16.326;2023-03-21T11:14:06;26.00;40.10
49679;DHT22;35570;48.218;16.326;2023-03-21T11:16:39;25.40;41.40
49679;DHT22;35570;48.218;16.326;2023-03-21T11:19:12;24.70;40.90
49679;DHT22;35570;48.218;16.326;2023-03-21T11:24:05;22.60;82.70
49679;DHT22;35570;48.218;16.326;2023-03-21T11:26:36;22.50;47.80
49679;DHT22;35570;48.218;16.326;2023-03-21T11:31:49;23.70;45.30
49679;DHT22;35570;48.218;16.326;2023-03-21T11:34:36;24.20;45.70
49679;DHT22;35570;48.218;16.326;2023-03-21T11:37:03;24.00;45.80
49679;DHT22;35570;48.218;16.326;2023-03-21T11:39:35;23.60;45.40
49679;DHT22;35570;48.218;16.326;2023-03-21T11:42:05;23.50;47.00
49679;DHT22;35570;48.218;16.326;2023-03-21T11:44:42;23.50;46.60
49679;DHT22;35570;48.218;16.326;2023-03-21T11:47:10;24.00;44.80
49679;DHT22;35570;48.218;16.326;2023-03-21T11:49:35;23.80;45.70
49679;DHT22;35570;48.218;16.326;2023-03-21T11:55:03;25.20;62.60
49679;DHT22;35570;48.218;16.326;2023-03-21T12:03:40;26.50;38.80
49679;DHT22;35570;48.218;16.326;2023-03-21T12:06:42;26.40;38.80
49679;DHT22;35570;48.218;16.326;2023-03-21T12:09:20;26.30;39.30
49679;DHT22;35570;48.218;16.326;2023-03-21T12:12:03;25.90;39.10
49679;DHT22;35570;48.218;16.326;2023-03-21T12:17:22;26.80;38.60
49679;DHT22;35570;48.218;16.326;2023-03-21T12:23:01;27.60;38.20
49679;DHT22;35570;48.218;16.326;2023-03-21T12:25:47;27.80;37.20
49679;DHT22;35570;48.218;16.326;2023-03-21T12:39:30;27.00;37.50
49679;DHT22;35570;48.218;16.326;2023-03-21T12:42:27;26.60;37.50
49679;DHT22;35570;48.218;16.326;2023-03-21T12:45:08;25.80;37.60
49679;DHT22;35570;48.218;16.326;2023-03-21T12:47:37;25.40;38.40
49679;DHT22;35570;48.218;16.326;2023-03-21T12:50:17;25.10;38.60
49679;DHT22;35570;48.218;16.326;2023-03-21T12:52:48;25.30;38.10
49679;DHT22;35570;48.218;16.326;2023-03-21T12:55:20;25.30;39.30
49679;DHT22;35570;48.218;16.326;2023-03-21T12:58:06;25.90;38.80
49679;DHT22;35570;48.218;16.326;2023-03-21T13:00:42;26.20;37.00
49679;DHT22;35570;48.218;16.326;2023-03-21T13:05:55;26.30;38.40
49679;DHT22;35570;48.218;16.326;2023-03-21T13:08:36;26.10;37.60
49679;DHT22;35570;48.218;16.326;2023-03-21T13:11:06;25.50;37.60
49679;DHT22;35570;48.218;16.326;2023-03-21T13:16:42;24.30;38.70
49679;DHT22;35570;48.218;16.326;2023-03-21T13:22:36;23.30;41.20
49679;DHT22;35570;48.218;16.326;2023-03-21T13:25:27;23.20;41.10
49679;DHT22;35570;48.218;16.326;2023-03-21T13:28:03;22.70;42.00
49679;DHT22;35570;48.218;16.326;2023-03-21T13:30:30;22.20;44.10
49679;DHT22;35570;48.218;16.326;2023-03-21T13:33:14;21.70;44.00
49679;DHT22;35570;48.218;16.326;2023-03-21T13:35:43;21.30;43.50
49679;DHT22;35570;48.218;16.326;2023-03-21T13:38:23;21.00;43.70
49679;DHT22;35570;48.218;16.326;2023-03-21T13:40:58;20.90;45.10
49679;DHT22;35570;48.218;16.326;2023-03-21T13:43:40;20.80;45.00
49679;DHT22;35570;48.218;16.326;2023-03-21T13:46:09;20.70;46.20
49679;DHT22;35570;48.218;16.326;2023-03-21T13:49:29;20.50;47.00
49679;DHT22;35570;48.218;16.326;2023-03-21T13:59:10;20.70;47.50
49679;DHT22;35570;48.218;16.326;2023-03-21T14:01:41;21.00;47.30
49679;DHT22;35570;48.218;16.326;2023-03-21T14:04:18;21.40;44.60
49679;DHT22;35570;48.218;16.326;2023-03-21T14:09:28;22.30;43.60
49679;DHT22;35570;48.218;16.326;2023-03-21T14:11:56;23.00;43.10
49679;DHT22;35570;48.218;16.326;2023-03-21T14:14:27;23.20;42.40
49679;DHT22;35570;48.218;16.326;2023-03-21T14:16:54;23.20;41.70
49679;DHT22;35570;48.218;16.326;2023-03-21T14:19:20;22.90;40.60
49679;DHT22;35570;48.218;16.326;2023-03-21T14:21:52;22.00;42.40
49679;DHT22;35570;48.218;16.326;2023-03-21T14:24:20;21.20;43.40
49679;DHT22;35570;48.218;16.326;2023-03-21T14:26:49;20.40;44.30
49679;DHT22;35570;48.218;16.326;2023-03-21T14:29:33;19.90;46.90
49679;DHT22;35570;48.218;16.326;2023-03-21T14:32:00;19.50;48.10
49679;DHT22;35570;48.218;16.326;2023-03-21T14:34:30;19.20;48.20
49679;DHT22;35570;48.218;16.326;2023-03-21T14:36:57;19.00;50.40
49679;DHT22;35570;48.218;16.326;2023-03-21T14:39:29;18.80;49.10
49679;DHT22;35570;48.218;16.326;2023-03-21T14:42:02;18.70;56.30
49679;DHT22;35570;48.218;16.326;2023-03-21T14:44:36;18.60;58.20
49679;DHT22;35570;48.218;16.326;2023-03-21T14:47:03;18.60;58.90
49679;DHT22;35570;48.218;16.326;2023-03-21T14:49:32;18.70;61.30
49679;DHT22;35570;48.218;16.326;2023-03-21T14:52:01;18.80;58.20
49679;DHT22;35570;48.218;16.326;2023-03-21T14:54:27;18.90;57.00
49679;DHT22;35570;48.218;16.326;2023-03-21T14:57:15;18.80;51.00
49679;DHT22;35570;48.218;16.326;2023-03-21T14:59:43;18.80;48.90
49679;DHT22;35570;48.218;16.326;2023-03-21T15:02:33;18.90;52.60
49679;DHT22;35570;48.218;16.326;2023-03-21T15:05:32;19.10;50.00
49679;DHT22;35570;48.218;16.326;2023-03-21T15:07:59;19.10;50.60
49679;DHT22;35570;48.218;16.326;2023-03-21T15:10:28;19.20;48.90
49679;DHT22;35570;48.218;16.326;2023-03-21T15:12:57;19.20;49.00
49679;DHT22;35570;48.218;16.326;2023-03-21T15:15:25;19.30;50.40
49679;DHT22;35570;48.218;16.326;2023-03-21T15:17:52;19.30;50.50
49679;DHT22;35570;48.218;16.326;2023-03-21T15:20:22;19.40;48.40
49679;DHT22;35570;48.218;16.326;2023-03-21T15:23:01;19.40;52.70
49679;DHT22;35570;48.218;16.326;2023-03-21T15:25:31;19.50;49.90
49679;DHT22;35570;48.218;16.326;2023-03-21T15:27:58;19.30;48.20
49679;DHT22;35570;48.218;16.326;2023-03-21T15:30:27;18.90;49.20
49679;DHT22;35570;48.218;16.326;2023-03-21T15:32:54;18.70;51.10
49679;DHT22;35570;48.218;16.326;2023-03-21T15:35:25;18.60;50.80
49679;DHT22;35570;48.218;16.326;2023-03-21T15:37:56;18.50;52.10
49679;DHT22;35570;48.218;16.326;2023-03-21T15:40:27;18.50;49.70
49679;DHT22;35570;48.218;16.326;2023-03-21T15:43:18;18.30;51.90
49679;DHT22;35570;48.218;16.326;2023-03-21T15:45:51;18.20;51.10
49679;DHT22;35570;48.218;16.326;2023-03-21T15:48:23;18.20;50.90
49679;DHT22;35570;48.218;16.326;2023-03-21T15:51:02;18.10;51.70
49679;DHT22;35570;48.218;16.326;2023-03-21T15:53:32;18.00;51.20
49679;DHT22;35570;48.218;16.326;2023-03-21T15:55:59;18.00;51.20
49679;DHT22;35570;48.218;16.326;2023-03-21T15:58:47;18.10;52.50
49679;DHT22;35570;48.218;16.326;2023-03-21T16:01:21;18.20;51.90
49679;DHT22;35570;48.218;16.326;2023-03-21T16:04:10;18.40;52.40
49679;DHT22;35570;48.218;16.326;2023-03-21T16:06:51;18.50;50.40
49679;DHT22;35570;48.218;16.326;2023-03-21T16:09:18;18.60;50.40
49679;DHT22;35570;48.218;16.326;2023-03-21T16:11:56;18.60;53.20
49679;DHT22;35570;48.218;16.326;2023-03-21T16:14:23;18.70;50.50
49679;DHT22;35570;48.218;16.326;2023-03-21T16:16:53;18.70;49.70
49679;DHT22;35570;48.218;16.326;2023-03-21T16:19:19;18.50;50.50
49679;DHT22;35570;48.218;16.326;2023-03-21T16:21:45;18.50;50.60
49679;DHT22;35570;48.218;16.326;2023-03-21T16:24:11;18.50;53.80
49679;DHT22;35570;48.218;16.326;2023-03-21T16:26:43;18.50;51.90
49679;DHT22;35570;48.218;16.326;2023-03-21T16:29:15;18.40;50.30
49679;DHT22;35570;48.218;16.326;2023-03-21T16:31:42;18.40;53.00
49679;DHT22;35570;48.218;16.326;2023-03-21T16:34:08;18.50;52.60
49679;DHT22;35570;48.218;16.326;2023-03-21T16:36:37;18.40;50.60
49679;DHT22;35570;48.218;16.326;2023-03-21T16:39:16;18.40;49.90
49679;DHT22;35570;48.218;16.326;2023-03-21T16:41:42;18.20;50.90
49679;DHT22;35570;48.218;16.326;2023-03-21T16:44:08;18.10;50.40
49679;DHT22;35570;48.218;16.326;2023-03-21T16:46:33;17.90;50.10
49679;DHT22;35570;48.218;16.326;2023-03-21T16:48:59;17.80;51.40
49679;DHT22;35570;48.218;16.326;2023-03-21T16:51:34;17.70;51.10
49679;DHT22;35570;48.218;16.326;2023-03-21T16:54:01;17.70;50.90
49679;DHT22;35570;48.218;16.326;2023-03-21T16:56:39;17.60;51.40
49679;DHT22;35570;48.218;16.326;2023-03-21T16:59:06;17.50;52.00
49679;DHT22;35570;48.218;16.326;2023-03-21T17:01:35;17.50;51.70
49679;DHT22;35570;48.218;16.326;2023-03-21T17:04:02;17.40;51.50
49679;DHT22;35570;48.218;16.326;2023-03-21T17:06:29;17.30;53.70
49679;DHT22;35570;48.218;16.326;2023-03-21T17:08:56;17.20;52.40
49679;DHT22;35570;48.218;16.326;2023-03-21T17:11:23;17.20;53.20
49679;DHT22;35570;48.218;16.326;2023-03-21T17:13:52;17.10;55.30
49679;DHT22;35570;48.218;16.326;2023-03-21T17:16:24;17.10;53.30
49679;DHT22;35570;48.218;16.326;2023-03-21T17:18:50;17.00;54.20
49679;DHT22;35570;48.218;16.326;2023-03-21T17:21:22;17.00;55.30
49679;DHT22;35570;48.218;16.326;2023-03-21T17:23:48;17.00;53.30
49679;DHT22;35570;48.218;16.326;2023-03-21T17:26:28;16.90;55.10
49679;DHT22;35570;48.218;16.326;2023-03-21T17:28:55;16.90;55.20
49679;DHT22;35570;48.218;16.326;2023-03-21T17:31:23;16.80;56.30